VBRA4: Lee Creek, Van Buren

                                SHEF ID:       VBRA4     Lee Creek at Lee Creek Reservoir
STATION TYPE: Stream Gauge
Regulating: Stage = 17.00, Flow = 0

PRECIP STAGE RIV-FLOW BAT-LOAD
in ft cfs volt
Ccp-Rev Ccp-Rev Ccp-Rev Ccp-Rev
(America/Chicago)
08/31 00:00 0.00 20.75 1918 12.81
08/31 01:00 0.00 20.75 1918 12.80
08/31 02:00 0.00 20.75 1918 12.80
08/31 03:00 0.00 20.74 1877 12.78
08/31 04:00 0.00 20.74 1877 12.77
08/31 05:00 0.00 20.72 1795 12.76
08/31 06:00 0.00 20.71 1754 12.76
08/31 07:00 0.00 20.73 1835 12.75
08/31 08:00 0.00 20.72 1795 12.77
08/31 09:00 0.00 20.72 1795 12.84
08/31 10:00 0.00 20.71 1754 12.90
08/31 11:00 0.00 20.71 1754 12.92
08/31 12:00 0.00 20.69 1675 13.00
08/31 13:00 0.00 20.69 1675 13.11
08/31 14:00 0.00 20.69 1675 13.56
08/31 15:00 0.00 20.68 1635 13.68
08/31 16:00 0.00 20.69 1675 13.66
08/31 17:00 0.00 20.68 1635 13.65
08/31 18:00 0.00 20.68 1635 13.65
08/31 19:00 0.00 20.67 1596 13.34
08/31 20:00 0.00 20.65 1520 13.03
08/31 21:00 0.00 20.65 1520 12.90
08/31 22:00 0.00 20.64 1482 12.84
08/31 23:00 ---- ---- ---- ----
Data processed at Tue 01Sep2026 04:57 GMT

NOTICE: If you are parsing this page

Please convert to using our Data API. Starting early 2026 we will be migrating to: https://water.usace.army.mil with modern pages rendered in JavaScript. When this migration completes you will no longer be able to scrape this page! CWMSDataAPI (CDA)

Timeseries IDs (TSIDs)

TSIDs used from left to right in the data table
VANL.Precip-Inc.Total.1Hour.1Hour.Ccp-Rev
VANL.Stage.Inst.1Hour.0.Ccp-Rev
VANL.Flow.Inst.1Hour.0.Ccp-Rev
VANL.Volt-Battery Load.Inst.1Hour.0.Ccp-Rev

                            

All information presented herein is the property of the government of the United States of America and may be revised or deleted at any time without prior notice. Dissemination of this information without the expressed written consent of the Public Affairs Office, Tulsa District U.S. Army Corps of Engineers is strictly prohibited. These data are gathered electronically and, as presented, have NOT undergone any form of quality control. These data are NOT guaranteed to be valid or correct.